Abbotsford International Airport

CYXX · Colúmbia Britânica, Canadá

História da METAR CYXX · Abbotsford Airport

Abaixo você vê METARs dos últimos dias. Selecione um ano para navegar pelos METARs mais antigos, a partir do ano 2007.

24 de abril de 2024

Hora Código Clima Temp. Visibilidade Tecto Vento METAR/SPECI
11:00
I
9 °C 8 mi 700 ft 230° 230° 6 kt METAR CYXX 241800Z 23006KT 8SM -RA BKN007 BKN034 OVC062 09/08 A3005 RMK CF5SC2SC1 SLP178
10:46
I
9 °C 8 mi 800 ft 230° 230° 8 kt METAR CYXX 241746Z 23008KT 8SM -RA BKN008 BKN038 OVC060 09/08 A3004 RMK CF5SC2SC1 VIS E-SE 15 SLP177
10:00
M
9 °C 10 mi 2.600 ft 210° 210° 9 kt METAR CYXX 241700Z 21009KT 10SM -RA FEW008 SCT018 BKN026 OVC050 09/08 A3003 RMK CF1SC2SC2SC3 SLP173
09:48
V
9 °C 10 mi 3.200 ft 200° 200° 10 kt METAR CYXX 241648Z 20010KT 10SM -RA FEW008 SCT018 BKN032 OVC050 09/08 A3003 RMK CF1SC2SC2SC3 SLP173
09:00
I
9 °C 10 mi 900 ft 190° 190° 11 kt METAR CYXX 241600Z 19011KT 10SM -RA BKN009 BKN019 OVC050 09/08 A3002 RMK SF5SC1SC2 VIS SE 20 SLP169
08:39
I
9 °C 10 mi 900 ft 190° 190° 11 kt METAR CYXX 241539Z 19011KT 10SM -RA BKN009 OVC017 09/08 A3002 RMK SF6SC2 SLP168
08:32
M
9 °C 10 mi 1.100 ft 190° 190° 8 kt METAR CYXX 241532Z CCA 19008KT 10SM -RA BKN011 BKN018 OVC040 09/08 A3002 RMK SC5SC2SC1 SLP168
08:00
V
9 °C 10 mi 3.800 ft 240° 240° 6 kt METAR CYXX 241500Z 24006KT 10SM -RA FEW008 FEW025 BKN038 OVC047 09/07 A3001 RMK SF1SC2SC5SC1 SF TR VIS HYR E SLP166
07:00
V
9 °C 15 mi 4.800 ft 330° 330° 4 kt METAR CYXX 241400Z 33004KT 15SM -RA OVC048 09/07 A2998 RMK SC8 SLP156
06:00
V
9 °C 15 mi 5.700 ft 360° 360° 0 kt METAR CYXX 241300Z 00000KT 15SM -RA OVC057 09/04 A2998 RMK SC8 SLP155
05:47
V
9 °C 15 mi 6.500 ft 360° 360° 0 kt METAR CYXX 241247Z 00000KT 15SM -RA OVC065 09/04 A2998 RMK SC8 SLP156
05:00
V
9 °C 10 mi 6.500 ft 240° 240° 5 kt METAR CYXX 241200Z 24005KT 10SM BKN065 OVC110 09/04 A2998 RMK SC6AC2 SLP155
04:00
V
8 °C 10 mi 11.000 ft 220° 220° 5 kt METAR CYXX 241100Z 22005KT 10SM SCT080 OVC110 08/05 A2997 RMK AC4AC4 SLP151
03:00
V
8 °C 10 mi 8.000 ft 230° 230° 8 kt METAR CYXX 241000Z 23008KT 10SM BKN080 OVC150 08/05 A2996 RMK AC5AC3 SLP146
02:00
V
10 °C 10 mi 8.000 ft 240° 240° 8 kt METAR CYXX 240900Z 24008KT 10SM OVC080 10/04 A2994 RMK AC8 SLP142
01:00
V
10 °C 10 mi 9.000 ft 240° 240° 6 kt METAR CYXX 240800Z 24006KT 10SM OVC090 10/04 A2993 RMK AC8 SLP138
00:00
V
11 °C 15 mi 8.500 ft 230° 230° 5 kt METAR CYXX 240700Z 23005KT 15SM BKN085 OVC240 11/04 A2992 RMK AC5CI3 SLP134

23 de abril de 2024

Hora Código Clima Temp. Visibilidade Tecto Vento METAR/SPECI
23:00
V
11 °C 15 mi 24.000 ft 230° 230° 4 kt METAR CYXX 240600Z 23004KT 15SM FEW100 BKN240 11/04 A2991 RMK AC2CI4 SLP130
22:00
V
11 °C 15 mi 23.000 ft 180° 180° 3 kt METAR CYXX 240500Z 18003KT 15SM SCT100 BKN230 11/05 A2990 RMK AC4CI3 SLP129
21:00
V
12 °C 15 mi 10.000 ft 190° 190° 4 kt METAR CYXX 240400Z 19004KT 15SM BKN100 BKN210 12/05 A2990 RMK AC5CI2 SLP126
20:00
V
14 °C 30 mi 21.000 ft 230° 230° 8 kt METAR CYXX 240300Z 23008KT 30SM SCT150 BKN210 14/03 A2988 RMK AC4CI2 SLP121
19:00
V
18 °C 30 mi 28.000 ft 220° 220° 7 kt METAR CYXX 240200Z 22007KT 30SM FEW220 BKN280 18/01 A2988 RMK CS2CI3 SLP122 DENSITY ALT 700FT
18:00
V
19 °C 30 mi - 250° 250° 9 kt METAR CYXX 240100Z 25009KT 30SM FEW280 19/00 A2989 RMK CI2 SLP125 DENSITY ALT 800FT
17:00
V
19 °C 30 mi - 210° 210° 4 kt METAR CYXX 240000Z 21004KT 170V270 30SM FEW200 FEW280 19/M01 A2990 RMK CC1CI2 CC TR SLP126 DENSITY ALT 800FT
16:00
V
20 °C 30 mi - 230° 230° 10 kt METAR CYXX 232300Z 23010KT 30SM SCT280 20/M00 A2991 RMK CI3 SLP132 DENSITY ALT 800FT
15:00
V
20 °C 30 mi 30.000 ft 240° 240° 8 - 17 kt METAR CYXX 232200Z 24008G17KT 190V270 30SM FEW240 BKN300 20/03 A2993 RMK CC1CI6 SLP136 DENSITY ALT 800FT
14:00
V
19 °C 30 mi 30.000 ft 220° 220° 4 kt METAR CYXX 232100Z 22004KT 190V320 30SM FEW190 SCT230 OVC300 19/02 A2993 RMK AC1CS3CI4 SLP139 DENSITY ALT 800FT
13:00
V
19 °C 30 mi 28.000 ft Var Var 2 kt METAR CYXX 232000Z VRB02KT 30SM FEW190 FEW240 BKN280 OVC300 19/00 A2994 RMK AC1CC1CS4CI2 SLP142 DENSITY ALT 700FT
12:00
V
17 °C 30 mi 30.000 ft 360° 360° 0 kt METAR CYXX 231900Z 00000KT 30SM FEW240 BKN300 17/02 A2996 RMK CC1CI7 CC TR SLP147 DENSITY ALT 500FT
11:00
V
16 °C 30 mi 30.000 ft 360° 360° 0 kt METAR CYXX 231800Z 00000KT 30SM FEW240 BKN300 16/04 A2996 RMK CC1CI7 CC TR CONTRAILS SLP149
10:00
V
14 °C 35 mi 30.000 ft 350° 350° 4 kt METAR CYXX 231700Z 35004KT 330V060 35SM BKN300 14/03 A2997 RMK CI7 CONTRAILS SLP150
09:00
V
12 °C 30 mi 28.000 ft 020° 020° 4 kt METAR CYXX 231600Z 02004KT 360V060 30SM BKN280 12/03 A2998 RMK CI6 CONTRAILS SLP155
08:00
V
10 °C 30 mi 28.000 ft 020° 020° 5 kt METAR CYXX 231500Z 02005KT 30SM BKN280 BKN300 10/03 A2998 RMK CI5CC1 CC TR SLP157
07:00
V
6 °C 30 mi 23.000 ft Var Var 2 kt METAR CYXX 231400Z VRB02KT 30SM BKN230 06/03 A2999 RMK CI5 SLP158
06:00
V
5 °C 30 mi 22.000 ft 050° 050° 3 kt METAR CYXX 231300Z 05003KT 30SM BKN220 05/01 A2998 RMK CI5 SLP156
05:00
V
5 °C 15 mi - 040° 040° 4 kt METAR CYXX 231200Z 04004KT 15SM FEW160 SCT210 05/03 A2999 RMK AC1CI3 AC LENT OVR MTS E SLP159
04:00
V
7 °C 15 mi 22.000 ft 020° 020° 3 kt METAR CYXX 231100Z 02003KT 15SM BKN220 07/03 A3000 RMK CI5 SLP161
03:00
V
8 °C 15 mi - Var Var 2 kt METAR CYXX 231000Z VRB02KT 15SM SCT210 08/03 A3001 RMK CI4 SLP163
02:00
V
7 °C 15 mi - 360° 360° 0 kt METAR CYXX 230900Z 00000KT 15SM SCT200 07/03 A3001 RMK CI4 SLP164
01:00
V
9 °C 15 mi 20.000 ft 050° 050° 3 kt METAR CYXX 230800Z 05003KT 15SM BKN200 09/04 A3001 RMK CI5 SLP167
00:00
V
9 °C 15 mi 21.000 ft 070° 070° 2 kt METAR CYXX 230700Z 07002KT 15SM SCT180 OVC210 09/04 A3002 RMK AC3CI5 SLP170

22 de abril de 2024

Hora Código Clima Temp. Visibilidade Tecto Vento METAR/SPECI
23:00
V
9 °C 15 mi 21.000 ft 360° 360° 0 kt METAR CYXX 230600Z 00000KT 15SM BKN210 09/04 A3003 RMK CI7 SLP173
22:00
V
10 °C 15 mi 23.000 ft 110° 110° 2 kt METAR CYXX 230500Z 11002KT 15SM BKN230 10/04 A3004 RMK CI5 SLP176
21:00
V
10 °C 30 mi 25.000 ft 150° 150° 4 kt METAR CYXX 230400Z 15004KT 30SM BKN250 10/04 A3004 RMK CI6 SLP176
20:00
V
12 °C 30 mi 27.000 ft 200° 200° 6 kt METAR CYXX 230300Z 20006KT 30SM SCT250 BKN270 12/04 A3004 RMK CI3CI3 SLP175
19:00
V
15 °C 30 mi 30.000 ft 210° 210° 7 kt METAR CYXX 230200Z 21007KT 30SM FEW065 SCT270 BKN300 15/04 A3004 RMK CF1CC4CI6 CF TR CONTRAILS SLP175
18:00
V
17 °C 30 mi - 260° 260° 10 kt METAR CYXX 230100Z 26010KT 30SM FEW050 FEW300 17/04 A3006 RMK CF1CI1 CF TR CONTRAILS SLP181
17:00
V
17 °C 30 mi - 220° 220° 11 kt METAR CYXX 230000Z 22011KT 30SM FEW050 FEW060 17/05 A3007 RMK CU1CU1 CU TR CU TR SLP185
16:00
V
17 °C 30 mi - 210° 210° 12 - 20 kt METAR CYXX 222300Z 21012G20KT 200V280 30SM FEW050 17/06 A3008 RMK CF1 CF TR SLP190
15:00
V
17 °C 30 mi - Var Var 10 kt METAR CYXX 222200Z VRB10KT 30SM FEW050 FEW060 17/01 A3011 RMK CF1CU1 CF TR CU TR SLP200
14:00
V
16 °C 25 mi - 360° 360° 0 kt METAR CYXX 222100Z 00000KT 25SM FEW050 FEW060 16/01 A3014 RMK CF1CU1 CF TR CU TR SLP209
13:00
V
15 °C 30 mi - Var Var 2 kt METAR CYXX 222000Z VRB02KT 30SM FEW050 FEW060 15/02 A3017 RMK CF1CU1 CF TR CU TR SLP218
12:00
V
13 °C 30 mi - 060° 060° 4 kt METAR CYXX 221900Z 06004KT 020V090 30SM FEW050 FEW060 13/04 A3019 RMK CF1CU1 CF TR CU TR SLP227
11:00
V
13 °C 30 mi - 360° 360° 11 kt METAR CYXX 221800Z 36011KT 310V090 30SM FEW050 FEW060 13/03 A3021 RMK CF1CU1 CF TR CU TR SLP232
10:00
V
11 °C 30 mi - 030° 030° 7 kt METAR CYXX 221700Z 03007KT 30SM FEW065 11/05 A3023 RMK CU1 CU TR SLP239
09:00
V
9 °C 30 mi - 360° 360° 5 kt METAR CYXX 221600Z 36005KT 350V050 30SM FEW075 09/05 A3024 RMK AC1 AC TR SLP245
08:00
V
7 °C 30 mi - 010° 010° 5 kt METAR CYXX 221500Z 01005KT 30SM FEW090 07/05 A3025 RMK AC1 AC TR SLP248
07:00
V
4 °C 30 mi - 360° 360° 0 kt METAR CYXX 221400Z 00000KT 30SM FEW040 FEW100 04/04 A3025 RMK SC1AC1 SC TR AC TR SLP249
06:19
V
3 °C 30 mi - 030° 030° 2 kt METAR CYXX 221319Z 03002KT 30SM FEW005 FEW045 03/03 A3025 RMK SF1SC1 SC TR SLP249
06:00
V
4 °C 30 mi - Var Var 2 kt METAR CYXX 221300Z VRB02KT 30SM FEW045 04/03 A3026 RMK SC1 SLP250
05:00
V
4 °C 15 mi 4.200 ft 360° 360° 0 kt METAR CYXX 221200Z 00000KT 15SM BKN042 04/04 A3027 RMK SC6 SLP254
04:00
V
5 °C 10 mi 4.200 ft 360° 360° 0 kt METAR CYXX 221100Z 00000KT 10SM BKN042 05/04 A3028 RMK SC7 SLP257
03:00
V
5 °C 15 mi - Var Var 2 kt METAR CYXX 221000Z VRB02KT 15SM SCT045 05/04 A3028 RMK SC4 SLP257
02:00
V
4 °C 15 mi - Var Var 2 kt METAR CYXX 220900Z VRB02KT 15SM SKC 04/03 A3028 RMK SLP259
01:00
V
5 °C 15 mi - 050° 050° 5 kt METAR CYXX 220800Z 05005KT 15SM SKC 05/04 A3029 RMK WIND EST SLP260
00:00
V
5 °C 15 mi - Var Var 2 kt METAR CYXX 220700Z VRB02KT 15SM FEW045 05/03 A3029 RMK SC1 SLP260

21 de abril de 2024

Hora Código Clima Temp. Visibilidade Tecto Vento METAR/SPECI
23:00
V
7 °C 15 mi - 360° 360° 0 kt METAR CYXX 220600Z 00000KT 15SM FEW050 07/04 A3029 RMK CU1 SLP262
Relatar uma mudança